sensor_id;sensor_type;location;lat;lon;timestamp;P1;durP1;ratioP1;P2;durP2;ratioP2
7150;SDS011;3617;48.836;9.172;2023-11-18T00:00:51;3.73;;;2.90;;
7150;SDS011;3617;48.836;9.172;2023-11-18T00:03:17;3.80;;;2.67;;
7150;SDS011;3617;48.836;9.172;2023-11-18T00:05:43;4.07;;;3.00;;
7150;SDS011;3617;48.836;9.172;2023-11-18T00:08:09;4.90;;;3.10;;
7150;SDS011;3617;48.836;9.172;2023-11-18T00:10:35;3.37;;;3.00;;
7150;SDS011;3617;48.836;9.172;2023-11-18T00:13:01;4.60;;;3.30;;
7150;SDS011;3617;48.836;9.172;2023-11-18T00:15:29;3.73;;;2.87;;
7150;SDS011;3617;48.836;9.172;2023-11-18T00:17:54;4.17;;;2.90;;
7150;SDS011;3617;48.836;9.172;2023-11-18T00:20:20;2.90;;;2.63;;
7150;SDS011;3617;48.836;9.172;2023-11-18T00:22:49;4.00;;;2.47;;
7150;SDS011;3617;48.836;9.172;2023-11-18T00:25:16;3.30;;;2.23;;
7150;SDS011;3617;48.836;9.172;2023-11-18T00:27:42;2.53;;;2.27;;
7150;SDS011;3617;48.836;9.172;2023-11-18T00:30:08;2.97;;;2.33;;
7150;SDS011;3617;48.836;9.172;2023-11-18T00:32:36;4.43;;;2.73;;
7150;SDS011;3617;48.836;9.172;2023-11-18T00:35:02;6.77;;;2.83;;
7150;SDS011;3617;48.836;9.172;2023-11-18T00:37:31;2.60;;;2.20;;
7150;SDS011;3617;48.836;9.172;2023-11-18T00:39:58;3.07;;;2.20;;
7150;SDS011;3617;48.836;9.172;2023-11-18T00:42:24;4.30;;;2.90;;
7150;SDS011;3617;48.836;9.172;2023-11-18T00:44:50;4.03;;;2.97;;
7150;SDS011;3617;48.836;9.172;2023-11-18T00:47:16;3.17;;;2.07;;
7150;SDS011;3617;48.836;9.172;2023-11-18T00:49:42;3.30;;;2.00;;
7150;SDS011;3617;48.836;9.172;2023-11-18T00:52:08;2.83;;;2.40;;
7150;SDS011;3617;48.836;9.172;2023-11-18T00:54:34;3.57;;;1.73;;
7150;SDS011;3617;48.836;9.172;2023-11-18T00:57:01;3.37;;;2.33;;
7150;SDS011;3617;48.836;9.172;2023-11-18T00:59:27;3.20;;;2.13;;
7150;SDS011;3617;48.836;9.172;2023-11-18T01:01:53;3.33;;;2.00;;
7150;SDS011;3617;48.836;9.172;2023-11-18T01:04:19;2.50;;;2.07;;
7150;SDS011;3617;48.836;9.172;2023-11-18T01:06:45;2.50;;;2.13;;
7150;SDS011;3617;48.836;9.172;2023-11-18T01:09:13;3.07;;;2.20;;
7150;SDS011;3617;48.836;9.172;2023-11-18T01:11:41;2.23;;;2.00;;
7150;SDS011;3617;48.836;9.172;2023-11-18T01:14:07;2.10;;;1.90;;
7150;SDS011;3617;48.836;9.172;2023-11-18T01:16:33;3.07;;;1.83;;
7150;SDS011;3617;48.836;9.172;2023-11-18T01:18:59;2.87;;;1.83;;
7150;SDS011;3617;48.836;9.172;2023-11-18T01:21:25;2.73;;;1.90;;
7150;SDS011;3617;48.836;9.172;2023-11-18T01:23:52;3.10;;;2.17;;
7150;SDS011;3617;48.836;9.172;2023-11-18T01:26:18;2.73;;;2.17;;
7150;SDS011;3617;48.836;9.172;2023-11-18T01:28:44;2.50;;;1.97;;
7150;SDS011;3617;48.836;9.172;2023-11-18T01:31:11;2.67;;;2.03;;
7150;SDS011;3617;48.836;9.172;2023-11-18T01:33:38;1.87;;;1.37;;
7150;SDS011;3617;48.836;9.172;2023-11-18T01:36:10;4.03;;;2.60;;
7150;SDS011;3617;48.836;9.172;2023-11-18T01:38:37;3.03;;;2.03;;
7150;SDS011;3617;48.836;9.172;2023-11-18T01:41:06;3.33;;;2.00;;
7150;SDS011;3617;48.836;9.172;2023-11-18T01:43:32;4.93;;;2.77;;
7150;SDS011;3617;48.836;9.172;2023-11-18T01:45:59;3.47;;;2.20;;
7150;SDS011;3617;48.836;9.172;2023-11-18T01:48:27;2.37;;;2.17;;
7150;SDS011;3617;48.836;9.172;2023-11-18T01:50:54;2.63;;;1.97;;
7150;SDS011;3617;48.836;9.172;2023-11-18T01:53:22;2.50;;;1.97;;
7150;SDS011;3617;48.836;9.172;2023-11-18T01:55:49;3.10;;;2.40;;
7150;SDS011;3617;48.836;9.172;2023-11-18T01:58:15;2.20;;;1.90;;
7150;SDS011;3617;48.836;9.172;2023-11-18T02:00:44;2.70;;;2.30;;
7150;SDS011;3617;48.836;9.172;2023-11-18T02:03:11;3.37;;;2.23;;
7150;SDS011;3617;48.836;9.172;2023-11-18T02:05:37;3.53;;;2.43;;
7150;SDS011;3617;48.836;9.172;2023-11-18T02:08:04;3.23;;;2.47;;
7150;SDS011;3617;48.836;9.172;2023-11-18T02:10:32;2.60;;;2.33;;
7150;SDS011;3617;48.836;9.172;2023-11-18T02:13:10;2.93;;;2.40;;
7150;SDS011;3617;48.836;9.172;2023-11-18T02:15:38;2.93;;;2.30;;
7150;SDS011;3617;48.836;9.172;2023-11-18T02:18:05;2.53;;;2.20;;
7150;SDS011;3617;48.836;9.172;2023-11-18T02:20:34;2.27;;;1.90;;
7150;SDS011;3617;48.836;9.172;2023-11-18T02:23:01;2.27;;;2.07;;
7150;SDS011;3617;48.836;9.172;2023-11-18T02:25:27;4.70;;;2.67;;
7150;SDS011;3617;48.836;9.172;2023-11-18T02:27:55;4.23;;;2.93;;
7150;SDS011;3617;48.836;9.172;2023-11-18T02:30:21;3.40;;;2.37;;
7150;SDS011;3617;48.836;9.172;2023-11-18T02:32:53;7.70;;;2.70;;
7150;SDS011;3617;48.836;9.172;2023-11-18T02:35:28;3.47;;;2.37;;
7150;SDS011;3617;48.836;9.172;2023-11-18T02:37:59;4.60;;;2.83;;
7150;SDS011;3617;48.836;9.172;2023-11-18T02:40:34;5.87;;;3.07;;
7150;SDS011;3617;48.836;9.172;2023-11-18T02:43:01;2.60;;;2.40;;
7150;SDS011;3617;48.836;9.172;2023-11-18T02:45:30;4.43;;;2.70;;
7150;SDS011;3617;48.836;9.172;2023-11-18T02:47:57;3.43;;;2.77;;
7150;SDS011;3617;48.836;9.172;2023-11-18T02:50:23;5.40;;;3.30;;
7150;SDS011;3617;48.836;9.172;2023-11-18T02:52:50;3.50;;;2.43;;
7150;SDS011;3617;48.836;9.172;2023-11-18T02:55:16;3.47;;;2.53;;
7150;SDS011;3617;48.836;9.172;2023-11-18T02:57:42;2.43;;;2.00;;
7150;SDS011;3617;48.836;9.172;2023-11-18T03:00:08;4.17;;;2.67;;
7150;SDS011;3617;48.836;9.172;2023-11-18T03:02:43;3.93;;;2.70;;
7150;SDS011;3617;48.836;9.172;2023-11-18T03:05:09;3.67;;;2.43;;
7150;SDS011;3617;48.836;9.172;2023-11-18T03:07:36;3.27;;;2.47;;
7150;SDS011;3617;48.836;9.172;2023-11-18T03:10:02;3.77;;;2.30;;
7150;SDS011;3617;48.836;9.172;2023-11-18T03:12:34;3.37;;;2.53;;
7150;SDS011;3617;48.836;9.172;2023-11-18T03:15:00;2.87;;;2.53;;
7150;SDS011;3617;48.836;9.172;2023-11-18T03:17:27;2.93;;;2.50;;
7150;SDS011;3617;48.836;9.172;2023-11-18T03:19:54;3.60;;;2.97;;
7150;SDS011;3617;48.836;9.172;2023-11-18T03:22:20;3.23;;;2.67;;
7150;SDS011;3617;48.836;9.172;2023-11-18T03:24:48;2.90;;;2.50;;
7150;SDS011;3617;48.836;9.172;2023-11-18T03:27:15;3.27;;;2.57;;
7150;SDS011;3617;48.836;9.172;2023-11-18T03:29:41;5.17;;;2.60;;
7150;SDS011;3617;48.836;9.172;2023-11-18T03:32:08;4.87;;;3.03;;
7150;SDS011;3617;48.836;9.172;2023-11-18T03:34:34;2.97;;;2.43;;
7150;SDS011;3617;48.836;9.172;2023-11-18T03:37:00;2.70;;;2.50;;
7150;SDS011;3617;48.836;9.172;2023-11-18T03:39:26;3.53;;;2.50;;
7150;SDS011;3617;48.836;9.172;2023-11-18T03:41:52;4.40;;;3.17;;
7150;SDS011;3617;48.836;9.172;2023-11-18T03:44:18;3.47;;;2.37;;
7150;SDS011;3617;48.836;9.172;2023-11-18T03:46:44;2.77;;;2.47;;
7150;SDS011;3617;48.836;9.172;2023-11-18T03:49:10;3.50;;;2.80;;
7150;SDS011;3617;48.836;9.172;2023-11-18T03:51:36;2.33;;;2.13;;
7150;SDS011;3617;48.836;9.172;2023-11-18T03:54:02;2.97;;;2.30;;
7150;SDS011;3617;48.836;9.172;2023-11-18T03:56:28;3.40;;;2.57;;
7150;SDS011;3617;48.836;9.172;2023-11-18T03:58:55;2.23;;;2.03;;
7150;SDS011;3617;48.836;9.172;2023-11-18T04:01:24;3.30;;;2.40;;
7150;SDS011;3617;48.836;9.172;2023-11-18T04:03:53;3.03;;;2.33;;
7150;SDS011;3617;48.836;9.172;2023-11-18T04:06:20;3.67;;;2.10;;
7150;SDS011;3617;48.836;9.172;2023-11-18T04:08:46;2.47;;;2.23;;
7150;SDS011;3617;48.836;9.172;2023-11-18T04:11:16;2.77;;;2.40;;
7150;SDS011;3617;48.836;9.172;2023-11-18T04:13:42;2.33;;;2.13;;
7150;SDS011;3617;48.836;9.172;2023-11-18T04:16:15;2.40;;;2.20;;
7150;SDS011;3617;48.836;9.172;2023-11-18T04:18:42;3.10;;;2.07;;
7150;SDS011;3617;48.836;9.172;2023-11-18T04:21:08;3.50;;;2.30;;
7150;SDS011;3617;48.836;9.172;2023-11-18T04:23:38;2.90;;;1.70;;
7150;SDS011;3617;48.836;9.172;2023-11-18T04:26:04;3.17;;;2.13;;
7150;SDS011;3617;48.836;9.172;2023-11-18T04:28:30;2.43;;;1.93;;
7150;SDS011;3617;48.836;9.172;2023-11-18T04:30:57;1.53;;;1.43;;
7150;SDS011;3617;48.836;9.172;2023-11-18T04:33:23;3.37;;;1.90;;
7150;SDS011;3617;48.836;9.172;2023-11-18T04:35:51;2.47;;;2.10;;
7150;SDS011;3617;48.836;9.172;2023-11-18T04:38:18;2.57;;;1.97;;
7150;SDS011;3617;48.836;9.172;2023-11-18T04:40:44;2.90;;;2.20;;
7150;SDS011;3617;48.836;9.172;2023-11-18T04:43:13;2.97;;;2.57;;
7150;SDS011;3617;48.836;9.172;2023-11-18T04:45:40;3.00;;;2.20;;
7150;SDS011;3617;48.836;9.172;2023-11-18T04:48:06;2.53;;;1.90;;
7150;SDS011;3617;48.836;9.172;2023-11-18T04:50:32;6.77;;;3.10;;
7150;SDS011;3617;48.836;9.172;2023-11-18T04:52:58;3.57;;;2.20;;
7150;SDS011;3617;48.836;9.172;2023-11-18T04:55:24;2.93;;;2.43;;
7150;SDS011;3617;48.836;9.172;2023-11-18T04:57:54;3.93;;;2.93;;
7150;SDS011;3617;48.836;9.172;2023-11-18T05:00:20;3.13;;;2.57;;
7150;SDS011;3617;48.836;9.172;2023-11-18T05:02:46;2.77;;;2.30;;
7150;SDS011;3617;48.836;9.172;2023-11-18T05:05:13;2.90;;;2.00;;
7150;SDS011;3617;48.836;9.172;2023-11-18T05:07:39;2.03;;;1.87;;
7150;SDS011;3617;48.836;9.172;2023-11-18T05:10:06;2.27;;;2.03;;
7150;SDS011;3617;48.836;9.172;2023-11-18T05:12:33;3.40;;;2.37;;
7150;SDS011;3617;48.836;9.172;2023-11-18T05:14:59;3.13;;;2.60;;
7150;SDS011;3617;48.836;9.172;2023-11-18T05:17:26;5.27;;;2.43;;
7150;SDS011;3617;48.836;9.172;2023-11-18T05:19:52;6.63;;;2.30;;
7150;SDS011;3617;48.836;9.172;2023-11-18T05:22:19;2.27;;;2.07;;
7150;SDS011;3617;48.836;9.172;2023-11-18T05:24:48;5.27;;;2.10;;
7150;SDS011;3617;48.836;9.172;2023-11-18T05:27:14;2.90;;;2.23;;
7150;SDS011;3617;48.836;9.172;2023-11-18T05:29:42;2.53;;;1.97;;
7150;SDS011;3617;48.836;9.172;2023-11-18T05:32:12;3.27;;;2.27;;
7150;SDS011;3617;48.836;9.172;2023-11-18T05:34:38;2.17;;;1.93;;
7150;SDS011;3617;48.836;9.172;2023-11-18T05:37:04;2.57;;;1.90;;
7150;SDS011;3617;48.836;9.172;2023-11-18T05:39:31;2.87;;;1.77;;
7150;SDS011;3617;48.836;9.172;2023-11-18T05:41:58;2.87;;;2.10;;
7150;SDS011;3617;48.836;9.172;2023-11-18T05:44:24;1.93;;;1.63;;
7150;SDS011;3617;48.836;9.172;2023-11-18T05:47:02;2.70;;;1.97;;
7150;SDS011;3617;48.836;9.172;2023-11-18T05:49:28;2.53;;;2.20;;
7150;SDS011;3617;48.836;9.172;2023-11-18T05:51:54;2.70;;;2.17;;
7150;SDS011;3617;48.836;9.172;2023-11-18T05:54:21;2.10;;;1.70;;
7150;SDS011;3617;48.836;9.172;2023-11-18T05:56:47;1.90;;;1.80;;
7150;SDS011;3617;48.836;9.172;2023-11-18T05:59:13;3.23;;;2.07;;
7150;SDS011;3617;48.836;9.172;2023-11-18T06:01:39;2.60;;;2.40;;
7150;SDS011;3617;48.836;9.172;2023-11-18T06:04:05;2.47;;;2.20;;
7150;SDS011;3617;48.836;9.172;2023-11-18T06:06:34;2.70;;;2.00;;
7150;SDS011;3617;48.836;9.172;2023-11-18T06:09:02;3.70;;;2.50;;
7150;SDS011;3617;48.836;9.172;2023-11-18T06:11:33;3.00;;;1.63;;
7150;SDS011;3617;48.836;9.172;2023-11-18T06:14:00;2.83;;;2.30;;
7150;SDS011;3617;48.836;9.172;2023-11-18T06:16:26;2.00;;;1.80;;
7150;SDS011;3617;48.836;9.172;2023-11-18T06:18:53;2.27;;;2.07;;
7150;SDS011;3617;48.836;9.172;2023-11-18T06:21:20;3.93;;;2.50;;
7150;SDS011;3617;48.836;9.172;2023-11-18T06:23:49;3.70;;;2.60;;
7150;SDS011;3617;48.836;9.172;2023-11-18T06:26:16;2.67;;;2.27;;
7150;SDS011;3617;48.836;9.172;2023-11-18T06:28:43;2.07;;;1.80;;
7150;SDS011;3617;48.836;9.172;2023-11-18T06:31:10;3.33;;;2.27;;
7150;SDS011;3617;48.836;9.172;2023-11-18T06:33:43;4.83;;;2.33;;
7150;SDS011;3617;48.836;9.172;2023-11-18T06:36:10;2.80;;;2.60;;
7150;SDS011;3617;48.836;9.172;2023-11-18T06:38:36;3.03;;;2.30;;
7150;SDS011;3617;48.836;9.172;2023-11-18T06:41:02;2.10;;;1.83;;
7150;SDS011;3617;48.836;9.172;2023-11-18T06:43:30;3.70;;;2.63;;
7150;SDS011;3617;48.836;9.172;2023-11-18T06:46:14;3.33;;;2.47;;
7150;SDS011;3617;48.836;9.172;2023-11-18T06:48:40;2.37;;;2.17;;
7150;SDS011;3617;48.836;9.172;2023-11-18T06:51:06;3.10;;;2.23;;
7150;SDS011;3617;48.836;9.172;2023-11-18T06:53:36;2.17;;;1.97;;
7150;SDS011;3617;48.836;9.172;2023-11-18T06:56:02;2.33;;;2.13;;
7150;SDS011;3617;48.836;9.172;2023-11-18T06:58:28;3.97;;;2.60;;
7150;SDS011;3617;48.836;9.172;2023-11-18T07:00:54;2.40;;;2.20;;
7150;SDS011;3617;48.836;9.172;2023-11-18T07:03:20;4.67;;;1.83;;
7150;SDS011;3617;48.836;9.172;2023-11-18T07:05:46;1.73;;;1.60;;
7150;SDS011;3617;48.836;9.172;2023-11-18T07:08:12;4.90;;;2.40;;
7150;SDS011;3617;48.836;9.172;2023-11-18T07:10:40;3.47;;;2.20;;
7150;SDS011;3617;48.836;9.172;2023-11-18T07:13:06;2.83;;;2.53;;
7150;SDS011;3617;48.836;9.172;2023-11-18T07:15:33;4.13;;;2.87;;
7150;SDS011;3617;48.836;9.172;2023-11-18T07:18:01;2.13;;;1.80;;
7150;SDS011;3617;48.836;9.172;2023-11-18T07:20:27;2.80;;;2.30;;
7150;SDS011;3617;48.836;9.172;2023-11-18T07:22:53;3.77;;;2.83;;
7150;SDS011;3617;48.836;9.172;2023-11-18T07:25:19;3.87;;;3.07;;
7150;SDS011;3617;48.836;9.172;2023-11-18T07:27:45;3.47;;;2.53;;
7150;SDS011;3617;48.836;9.172;2023-11-18T07:30:11;3.07;;;2.73;;
7150;SDS011;3617;48.836;9.172;2023-11-18T07:32:39;2.90;;;2.30;;
7150;SDS011;3617;48.836;9.172;2023-11-18T07:35:05;4.20;;;2.90;;
7150;SDS011;3617;48.836;9.172;2023-11-18T07:37:34;3.87;;;2.67;;
7150;SDS011;3617;48.836;9.172;2023-11-18T07:40:00;4.00;;;2.70;;
7150;SDS011;3617;48.836;9.172;2023-11-18T07:42:26;2.90;;;2.33;;
7150;SDS011;3617;48.836;9.172;2023-11-18T07:44:52;2.97;;;2.40;;
7150;SDS011;3617;48.836;9.172;2023-11-18T07:47:19;6.00;;;2.50;;
7150;SDS011;3617;48.836;9.172;2023-11-18T07:49:46;3.13;;;2.37;;
7150;SDS011;3617;48.836;9.172;2023-11-18T07:52:13;4.17;;;2.77;;
7150;SDS011;3617;48.836;9.172;2023-11-18T07:54:39;3.80;;;2.43;;
7150;SDS011;3617;48.836;9.172;2023-11-18T07:57:05;3.87;;;3.00;;
7150;SDS011;3617;48.836;9.172;2023-11-18T07:59:35;5.00;;;3.13;;
7150;SDS011;3617;48.836;9.172;2023-11-18T08:02:01;6.67;;;2.93;;
7150;SDS011;3617;48.836;9.172;2023-11-18T08:04:27;4.30;;;3.20;;
7150;SDS011;3617;48.836;9.172;2023-11-18T08:06:54;2.50;;;2.30;;
7150;SDS011;3617;48.836;9.172;2023-11-18T08:09:20;3.77;;;2.57;;
7150;SDS011;3617;48.836;9.172;2023-11-18T08:11:50;2.83;;;2.53;;
7150;SDS011;3617;48.836;9.172;2023-11-18T08:14:18;3.37;;;2.60;;
7150;SDS011;3617;48.836;9.172;2023-11-18T08:16:44;2.80;;;2.20;;
7150;SDS011;3617;48.836;9.172;2023-11-18T08:19:10;3.70;;;2.53;;
7150;SDS011;3617;48.836;9.172;2023-11-18T08:21:36;4.47;;;2.90;;
7150;SDS011;3617;48.836;9.172;2023-11-18T08:24:06;3.37;;;2.83;;
7150;SDS011;3617;48.836;9.172;2023-11-18T08:26:34;4.90;;;2.73;;
7150;SDS011;3617;48.836;9.172;2023-11-18T08:29:00;3.17;;;2.40;;
7150;SDS011;3617;48.836;9.172;2023-11-18T08:31:27;4.20;;;3.10;;
7150;SDS011;3617;48.836;9.172;2023-11-18T08:33:53;3.53;;;2.83;;
7150;SDS011;3617;48.836;9.172;2023-11-18T08:36:19;5.03;;;3.10;;
7150;SDS011;3617;48.836;9.172;2023-11-18T08:38:47;4.33;;;2.73;;
7150;SDS011;3617;48.836;9.172;2023-11-18T08:41:14;6.10;;;2.80;;
7150;SDS011;3617;48.836;9.172;2023-11-18T08:43:40;4.40;;;2.67;;
7150;SDS011;3617;48.836;9.172;2023-11-18T08:46:06;8.80;;;3.27;;
7150;SDS011;3617;48.836;9.172;2023-11-18T08:48:33;3.37;;;2.73;;
7150;SDS011;3617;48.836;9.172;2023-11-18T08:50:59;5.13;;;3.00;;
7150;SDS011;3617;48.836;9.172;2023-11-18T08:53:28;2.93;;;2.63;;
7150;SDS011;3617;48.836;9.172;2023-11-18T08:55:54;5.00;;;2.93;;
7150;SDS011;3617;48.836;9.172;2023-11-18T08:58:20;2.50;;;2.17;;
7150;SDS011;3617;48.836;9.172;2023-11-18T09:00:53;4.63;;;3.00;;
7150;SDS011;3617;48.836;9.172;2023-11-18T09:03:20;2.80;;;2.50;;
7150;SDS011;3617;48.836;9.172;2023-11-18T09:06:04;2.27;;;2.03;;
7150;SDS011;3617;48.836;9.172;2023-11-18T09:08:35;4.43;;;2.47;;
7150;SDS011;3617;48.836;9.172;2023-11-18T09:11:03;3.53;;;2.40;;
7150;SDS011;3617;48.836;9.172;2023-11-18T09:13:30;4.67;;;2.63;;
7150;SDS011;3617;48.836;9.172;2023-11-18T09:15:59;2.67;;;2.40;;
7150;SDS011;3617;48.836;9.172;2023-11-18T09:18:26;2.47;;;2.07;;
7150;SDS011;3617;48.836;9.172;2023-11-18T09:21:00;4.13;;;2.33;;
7150;SDS011;3617;48.836;9.172;2023-11-18T09:23:26;3.23;;;1.83;;
7150;SDS011;3617;48.836;9.172;2023-11-18T09:25:52;2.27;;;2.07;;
7150;SDS011;3617;48.836;9.172;2023-11-18T09:28:19;2.80;;;1.47;;
7150;SDS011;3617;48.836;9.172;2023-11-18T09:30:45;1.73;;;1.40;;
7150;SDS011;3617;48.836;9.172;2023-11-18T09:33:16;1.77;;;1.63;;
7150;SDS011;3617;48.836;9.172;2023-11-18T09:35:50;1.83;;;1.50;;
7150;SDS011;3617;48.836;9.172;2023-11-18T09:38:17;2.13;;;1.57;;
7150;SDS011;3617;48.836;9.172;2023-11-18T09:40:43;2.93;;;1.40;;
7150;SDS011;3617;48.836;9.172;2023-11-18T09:43:11;1.97;;;1.27;;
7150;SDS011;3617;48.836;9.172;2023-11-18T09:45:40;1.33;;;1.23;;
7150;SDS011;3617;48.836;9.172;2023-11-18T09:48:08;2.67;;;1.83;;
7150;SDS011;3617;48.836;9.172;2023-11-18T09:50:34;2.10;;;1.40;;
7150;SDS011;3617;48.836;9.172;2023-11-18T09:53:03;1.60;;;1.47;;
7150;SDS011;3617;48.836;9.172;2023-11-18T09:55:38;1.93;;;1.73;;
7150;SDS011;3617;48.836;9.172;2023-11-18T09:58:06;1.87;;;1.40;;
7150;SDS011;3617;48.836;9.172;2023-11-18T10:00:38;1.67;;;1.53;;
7150;SDS011;3617;48.836;9.172;2023-11-18T10:03:06;1.97;;;1.67;;
7150;SDS011;3617;48.836;9.172;2023-11-18T10:05:40;1.73;;;1.50;;
7150;SDS011;3617;48.836;9.172;2023-11-18T10:08:07;1.60;;;1.50;;
7150;SDS011;3617;48.836;9.172;2023-11-18T10:10:33;1.87;;;1.30;;
7150;SDS011;3617;48.836;9.172;2023-11-18T10:13:03;1.10;;;1.00;;
7150;SDS011;3617;48.836;9.172;2023-11-18T10:15:33;1.63;;;1.53;;
7150;SDS011;3617;48.836;9.172;2023-11-18T10:17:59;1.30;;;1.20;;
7150;SDS011;3617;48.836;9.172;2023-11-18T10:20:47;2.13;;;1.60;;
7150;SDS011;3617;48.836;9.172;2023-11-18T10:23:16;2.87;;;1.23;;
7150;SDS011;3617;48.836;9.172;2023-11-18T10:28:23;1.37;;;1.20;;
7150;SDS011;3617;48.836;9.172;2023-11-18T10:30:49;2.73;;;1.33;;
7150;SDS011;3617;48.836;9.172;2023-11-18T10:33:16;1.47;;;1.37;;
7150;SDS011;3617;48.836;9.172;2023-11-18T10:35:49;1.70;;;1.50;;
7150;SDS011;3617;48.836;9.172;2023-11-18T10:38:20;1.80;;;1.30;;
7150;SDS011;3617;48.836;9.172;2023-11-18T10:40:50;1.27;;;1.17;;
7150;SDS011;3617;48.836;9.172;2023-11-18T10:43:17;2.10;;;1.40;;
7150;SDS011;3617;48.836;9.172;2023-11-18T10:45:42;1.40;;;1.30;;
7150;SDS011;3617;48.836;9.172;2023-11-18T10:48:11;1.43;;;1.33;;
7150;SDS011;3617;48.836;9.172;2023-11-18T10:50:41;1.03;;;1.00;;
7150;SDS011;3617;48.836;9.172;2023-11-18T10:53:07;2.20;;;1.30;;
7150;SDS011;3617;48.836;9.172;2023-11-18T10:55:36;1.30;;;1.20;;
7150;SDS011;3617;48.836;9.172;2023-11-18T10:58:03;1.20;;;1.10;;
7150;SDS011;3617;48.836;9.172;2023-11-18T11:00:51;1.57;;;1.33;;
7150;SDS011;3617;48.836;9.172;2023-11-18T11:03:25;1.53;;;1.30;;
7150;SDS011;3617;48.836;9.172;2023-11-18T11:05:51;1.30;;;1.20;;
7150;SDS011;3617;48.836;9.172;2023-11-18T11:08:19;1.60;;;1.37;;
7150;SDS011;3617;48.836;9.172;2023-11-18T11:10:45;2.10;;;1.50;;
7150;SDS011;3617;48.836;9.172;2023-11-18T11:13:13;1.63;;;1.23;;
7150;SDS011;3617;48.836;9.172;2023-11-18T11:15:41;1.30;;;1.20;;
7150;SDS011;3617;48.836;9.172;2023-11-18T11:18:11;1.30;;;1.20;;
7150;SDS011;3617;48.836;9.172;2023-11-18T11:23:21;3.07;;;1.20;;
7150;SDS011;3617;48.836;9.172;2023-11-18T11:26:06;4.60;;;1.40;;
7150;SDS011;3617;48.836;9.172;2023-11-18T11:28:42;1.73;;;1.40;;
7150;SDS011;3617;48.836;9.172;2023-11-18T11:31:12;1.87;;;1.10;;
7150;SDS011;3617;48.836;9.172;2023-11-18T11:33:46;1.20;;;1.10;;
7150;SDS011;3617;48.836;9.172;2023-11-18T11:36:17;1.43;;;1.33;;
7150;SDS011;3617;48.836;9.172;2023-11-18T11:38:48;1.20;;;1.10;;
7150;SDS011;3617;48.836;9.172;2023-11-18T11:41:16;1.67;;;1.50;;
7150;SDS011;3617;48.836;9.172;2023-11-18T11:43:51;2.53;;;1.63;;
7150;SDS011;3617;48.836;9.172;2023-11-18T11:46:20;2.40;;;1.50;;
7150;SDS011;3617;48.836;9.172;2023-11-18T11:48:48;2.23;;;1.60;;
7150;SDS011;3617;48.836;9.172;2023-11-18T11:51:17;7.27;;;1.50;;
7150;SDS011;3617;48.836;9.172;2023-11-18T11:53:49;1.20;;;1.10;;
7150;SDS011;3617;48.836;9.172;2023-11-18T11:56:18;1.77;;;1.30;;
7150;SDS011;3617;48.836;9.172;2023-11-18T11:58:49;1.37;;;1.27;;
7150;SDS011;3617;48.836;9.172;2023-11-18T12:01:27;2.53;;;1.13;;
7150;SDS011;3617;48.836;9.172;2023-11-18T12:03:59;3.43;;;1.50;;
7150;SDS011;3617;48.836;9.172;2023-11-18T12:06:31;1.30;;;1.20;;
7150;SDS011;3617;48.836;9.172;2023-11-18T12:08:57;1.43;;;1.30;;
7150;SDS011;3617;48.836;9.172;2023-11-18T12:11:23;6.23;;;1.80;;
7150;SDS011;3617;48.836;9.172;2023-11-18T12:19:32;3.23;;;1.60;;
7150;SDS011;3617;48.836;9.172;2023-11-18T12:35:26;1.50;;;1.10;;
7150;SDS011;3617;48.836;9.172;2023-11-18T12:38:00;1.03;;;1.00;;
7150;SDS011;3617;48.836;9.172;2023-11-18T12:42:58;1.37;;;1.27;;
7150;SDS011;3617;48.836;9.172;2023-11-18T12:45:41;2.83;;;1.40;;
7150;SDS011;3617;48.836;9.172;2023-11-18T12:48:16;3.43;;;1.90;;
7150;SDS011;3617;48.836;9.172;2023-11-18T12:50:42;3.83;;;1.50;;
7150;SDS011;3617;48.836;9.172;2023-11-18T12:53:11;2.00;;;1.40;;
7150;SDS011;3617;48.836;9.172;2023-11-18T12:55:39;6.23;;;2.50;;
7150;SDS011;3617;48.836;9.172;2023-11-18T12:58:06;3.00;;;2.20;;
7150;SDS011;3617;48.836;9.172;2023-11-18T13:00:32;3.17;;;1.70;;
7150;SDS011;3617;48.836;9.172;2023-11-18T13:03:01;1.00;;;1.00;;
7150;SDS011;3617;48.836;9.172;2023-11-18T13:05:27;1.67;;;1.47;;
7150;SDS011;3617;48.836;9.172;2023-11-18T13:07:55;2.33;;;1.43;;
7150;SDS011;3617;48.836;9.172;2023-11-18T13:10:22;1.73;;;1.33;;
7150;SDS011;3617;48.836;9.172;2023-11-18T13:12:49;7.90;;;3.57;;
7150;SDS011;3617;48.836;9.172;2023-11-18T13:15:15;3.03;;;2.33;;
7150;SDS011;3617;48.836;9.172;2023-11-18T13:17:56;2.10;;;1.50;;
7150;SDS011;3617;48.836;9.172;2023-11-18T13:20:22;5.27;;;2.50;;
7150;SDS011;3617;48.836;9.172;2023-11-18T13:22:51;1.40;;;1.30;;
7150;SDS011;3617;48.836;9.172;2023-11-18T13:25:17;13.13;;;5.10;;
7150;SDS011;3617;48.836;9.172;2023-11-18T13:27:43;10.47;;;5.47;;
7150;SDS011;3617;48.836;9.172;2023-11-18T13:30:10;11.30;;;4.10;;
7150;SDS011;3617;48.836;9.172;2023-11-18T13:32:44;2.13;;;1.93;;
7150;SDS011;3617;48.836;9.172;2023-11-18T13:35:11;6.40;;;2.17;;
7150;SDS011;3617;48.836;9.172;2023-11-18T13:37:39;8.03;;;4.17;;
7150;SDS011;3617;48.836;9.172;2023-11-18T13:40:09;3.43;;;1.90;;
7150;SDS011;3617;48.836;9.172;2023-11-18T13:42:35;6.17;;;3.10;;
7150;SDS011;3617;48.836;9.172;2023-11-18T13:45:04;2.30;;;2.00;;
7150;SDS011;3617;48.836;9.172;2023-11-18T13:47:34;1.53;;;1.43;;
7150;SDS011;3617;48.836;9.172;2023-11-18T13:50:05;2.17;;;1.80;;
7150;SDS011;3617;48.836;9.172;2023-11-18T13:52:31;1.70;;;1.60;;
7150;SDS011;3617;48.836;9.172;2023-11-18T13:54:58;2.57;;;2.20;;
7150;SDS011;3617;48.836;9.172;2023-11-18T13:57:25;3.20;;;2.60;;
7150;SDS011;3617;48.836;9.172;2023-11-18T13:59:51;3.50;;;2.70;;
7150;SDS011;3617;48.836;9.172;2023-11-18T14:02:19;2.00;;;1.80;;
7150;SDS011;3617;48.836;9.172;2023-11-18T14:04:46;3.13;;;2.77;;
7150;SDS011;3617;48.836;9.172;2023-11-18T14:07:16;2.57;;;1.80;;
7150;SDS011;3617;48.836;9.172;2023-11-18T14:09:43;2.80;;;1.80;;
7150;SDS011;3617;48.836;9.172;2023-11-18T14:12:11;3.43;;;2.20;;
7150;SDS011;3617;48.836;9.172;2023-11-18T14:14:37;2.27;;;1.80;;
7150;SDS011;3617;48.836;9.172;2023-11-18T14:17:04;2.53;;;1.80;;
7150;SDS011;3617;48.836;9.172;2023-11-18T14:19:35;1.30;;;1.20;;
7150;SDS011;3617;48.836;9.172;2023-11-18T14:22:02;3.33;;;2.23;;
7150;SDS011;3617;48.836;9.172;2023-11-18T14:24:31;2.50;;;1.73;;
7150;SDS011;3617;48.836;9.172;2023-11-18T14:26:57;2.37;;;2.17;;
7150;SDS011;3617;48.836;9.172;2023-11-18T14:29:23;3.53;;;1.90;;
7150;SDS011;3617;48.836;9.172;2023-11-18T14:31:49;2.30;;;1.90;;
7150;SDS011;3617;48.836;9.172;2023-11-18T14:34:15;4.67;;;1.90;;
7150;SDS011;3617;48.836;9.172;2023-11-18T14:36:43;2.53;;;1.70;;
7150;SDS011;3617;48.836;9.172;2023-11-18T14:39:09;2.10;;;1.90;;
7150;SDS011;3617;48.836;9.172;2023-11-18T14:41:38;3.10;;;1.60;;
7150;SDS011;3617;48.836;9.172;2023-11-18T14:44:05;2.40;;;1.67;;
7150;SDS011;3617;48.836;9.172;2023-11-18T14:46:32;2.37;;;2.00;;
7150;SDS011;3617;48.836;9.172;2023-11-18T14:48:58;3.03;;;1.60;;
7150;SDS011;3617;48.836;9.172;2023-11-18T14:51:24;1.90;;;1.70;;
7150;SDS011;3617;48.836;9.172;2023-11-18T14:53:50;3.60;;;2.37;;
7150;SDS011;3617;48.836;9.172;2023-11-18T14:56:17;4.07;;;2.43;;
7150;SDS011;3617;48.836;9.172;2023-11-18T14:58:43;1.90;;;1.70;;
7150;SDS011;3617;48.836;9.172;2023-11-18T15:01:14;2.47;;;1.87;;
7150;SDS011;3617;48.836;9.172;2023-11-18T15:03:40;4.10;;;2.10;;
7150;SDS011;3617;48.836;9.172;2023-11-18T15:06:06;3.20;;;2.27;;
7150;SDS011;3617;48.836;9.172;2023-11-18T15:08:35;4.03;;;2.10;;
7150;SDS011;3617;48.836;9.172;2023-11-18T15:11:01;2.60;;;2.03;;
7150;SDS011;3617;48.836;9.172;2023-11-18T15:13:28;5.70;;;4.27;;
7150;SDS011;3617;48.836;9.172;2023-11-18T15:15:54;4.23;;;2.43;;
7150;SDS011;3617;48.836;9.172;2023-11-18T15:18:20;10.47;;;5.37;;
7150;SDS011;3617;48.836;9.172;2023-11-18T15:20:47;6.80;;;4.77;;
7150;SDS011;3617;48.836;9.172;2023-11-18T15:23:13;14.10;;;8.93;;
7150;SDS011;3617;48.836;9.172;2023-11-18T15:25:41;4.80;;;3.77;;
7150;SDS011;3617;48.836;9.172;2023-11-18T15:28:07;5.13;;;3.17;;
7150;SDS011;3617;48.836;9.172;2023-11-18T15:30:37;5.87;;;2.57;;
7150;SDS011;3617;48.836;9.172;2023-11-18T15:33:03;19.97;;;10.53;;
7150;SDS011;3617;48.836;9.172;2023-11-18T15:35:29;7.50;;;4.23;;
7150;SDS011;3617;48.836;9.172;2023-11-18T15:37:55;11.37;;;7.50;;
7150;SDS011;3617;48.836;9.172;2023-11-18T15:40:21;29.43;;;17.77;;
7150;SDS011;3617;48.836;9.172;2023-11-18T15:42:50;17.40;;;10.63;;
7150;SDS011;3617;48.836;9.172;2023-11-18T15:45:20;13.23;;;7.97;;